createdAt,value
2018-12-04T00:00:24.937Z,99.76
2018-12-04T00:02:53.196Z,99.08
2018-12-04T00:05:21.371Z,99.00
2018-12-04T00:07:49.465Z,99.31
2018-12-04T00:10:18.009Z,99.62
2018-12-04T00:12:46.652Z,99.29
2018-12-04T00:15:14.208Z,99.21
2018-12-04T00:17:41.810Z,99.19
2018-12-04T00:20:09.468Z,99.23
2018-12-04T00:22:37.035Z,99.84
2018-12-04T00:25:05.276Z,100.00
2018-12-04T00:27:33.106Z,99.79
2018-12-04T00:30:00.682Z,99.92
2018-12-04T00:32:28.252Z,99.66
2018-12-04T00:34:55.791Z,100.00
2018-12-04T00:37:23.393Z,100.00
2018-12-04T00:39:50.994Z,100.00
2018-12-04T00:42:18.889Z,99.77
2018-12-04T00:44:46.441Z,99.73
2018-12-04T00:47:13.977Z,99.60
2018-12-04T00:49:41.553Z,99.62
2018-12-04T00:52:09.090Z,99.61
2018-12-04T00:54:36.649Z,100.00
2018-12-04T00:57:04.253Z,99.53
2018-12-04T00:59:31.783Z,99.84
2018-12-04T01:01:59.360Z,99.75
2018-12-04T01:04:27.245Z,99.49
2018-12-04T01:06:54.796Z,100.00
2018-12-04T01:09:22.358Z,99.50
2018-12-04T01:11:49.954Z,99.30
2018-12-04T01:14:17.654Z,100.00
2018-12-04T01:16:45.278Z,99.53
2018-12-04T01:19:12.845Z,99.84
2018-12-04T01:21:40.375Z,99.30
2018-12-04T01:24:08.246Z,99.72
2018-12-04T01:26:35.840Z,99.45
2018-12-04T01:29:03.420Z,99.12
2018-12-04T01:31:30.981Z,99.67
2018-12-04T01:33:58.553Z,99.86
2018-12-04T01:36:26.132Z,100.00
2018-12-04T01:38:53.686Z,100.00
2018-12-04T01:41:21.372Z,100.00
2018-12-04T01:43:48.920Z,99.55
2018-12-04T01:46:16.900Z,100.00
2018-12-04T01:48:44.502Z,99.76
2018-12-04T01:51:12.083Z,99.71
2018-12-04T01:53:40.009Z,99.60
2018-12-04T01:56:07.552Z,99.30
2018-12-04T01:58:35.118Z,99.99
2018-12-04T02:01:02.638Z,99.37
2018-12-04T02:03:30.217Z,99.55
2018-12-04T02:05:57.765Z,98.83
2018-12-04T02:08:25.336Z,99.25
2018-12-04T02:10:52.926Z,98.53
2018-12-04T02:13:20.482Z,98.45
2018-12-04T02:15:48.100Z,98.66
2018-12-04T02:18:15.706Z,97.65
2018-12-04T02:20:43.592Z,97.83
2018-12-04T02:23:11.203Z,97.68
2018-12-04T02:25:38.787Z,97.45
2018-12-04T02:28:06.367Z,97.92
2018-12-04T02:30:33.933Z,97.98
2018-12-04T02:33:01.478Z,97.50
2018-12-04T02:35:29.043Z,97.88
2018-12-04T02:37:56.922Z,98.05
2018-12-04T02:40:24.779Z,98.02
2018-12-04T02:42:52.334Z,98.09
2018-12-04T02:45:20.201Z,97.88
2018-12-04T02:47:47.812Z,97.46
2018-12-04T02:50:15.385Z,97.92
2018-12-04T02:52:43.202Z,97.94
2018-12-04T02:55:10.836Z,97.73
2018-12-04T02:57:38.388Z,97.43
2018-12-04T03:00:07.305Z,96.38
2018-12-04T03:02:34.890Z,96.93
2018-12-04T03:05:02.633Z,96.39
2018-12-04T03:07:30.506Z,95.94
2018-12-04T03:09:58.136Z,96.21
2018-12-04T03:12:26.043Z,95.49
2018-12-04T03:14:53.620Z,95.66
2018-12-04T03:17:21.240Z,94.83
2018-12-04T03:19:49.385Z,95.12
2018-12-04T03:22:16.922Z,93.17
2018-12-04T03:24:44.516Z,92.89
2018-12-04T03:27:12.068Z,92.04
2018-12-04T03:29:39.616Z,92.82
2018-12-04T03:32:07.218Z,92.53
2018-12-04T03:34:34.788Z,93.24
2018-12-04T03:37:02.348Z,89.77
2018-12-04T03:39:29.943Z,89.42
2018-12-04T03:41:57.781Z,87.34
2018-12-04T03:44:25.367Z,88.16
2018-12-04T03:46:52.887Z,85.69
2018-12-04T03:49:20.435Z,86.58
2018-12-04T03:51:48.038Z,87.10
2018-12-04T03:54:15.605Z,87.59
2018-12-04T03:56:43.164Z,86.59
2018-12-04T03:59:11.025Z,86.62
2018-12-04T04:01:38.633Z,86.88
2018-12-04T04:04:06.557Z,87.65
2018-12-04T04:06:34.150Z,88.42
2018-12-04T04:09:01.681Z,89.27
2018-12-04T04:11:29.282Z,88.01
2018-12-04T04:13:56.849Z,88.69
2018-12-04T04:16:24.433Z,86.31
2018-12-04T04:18:52.044Z,87.38
2018-12-04T04:21:19.597Z,86.74
2018-12-04T04:23:47.114Z,85.74
2018-12-04T04:26:14.766Z,87.02
2018-12-04T04:28:42.347Z,86.20
2018-12-04T04:31:09.956Z,86.39
2018-12-04T04:33:37.530Z,84.55
2018-12-04T04:36:05.206Z,85.41
2018-12-04T04:38:32.784Z,86.11
2018-12-04T04:41:00.357Z,85.26
2018-12-04T04:43:27.942Z,85.25
2018-12-04T04:45:55.532Z,84.73
2018-12-04T04:48:23.470Z,86.21
2018-12-04T04:50:51.007Z,85.01
2018-12-04T04:53:18.610Z,86.02
2018-12-04T04:55:46.171Z,84.81
2018-12-04T04:58:13.748Z,85.57
2018-12-04T05:00:41.316Z,84.79
2018-12-04T05:03:08.927Z,84.30
2018-12-04T05:05:37.531Z,84.72
2018-12-04T05:08:05.096Z,84.37
2018-12-04T05:10:32.694Z,84.81
2018-12-04T05:13:00.248Z,85.33
2018-12-04T05:15:27.852Z,84.73
2018-12-04T05:17:55.393Z,84.11
2018-12-04T05:20:22.936Z,84.11
2018-12-04T05:22:50.482Z,83.86
2018-12-04T05:25:19.085Z,84.58
2018-12-04T05:27:46.772Z,83.90
2018-12-04T05:30:14.360Z,83.98
2018-12-04T05:32:42.785Z,83.20
2018-12-04T05:35:10.358Z,83.57
2018-12-04T05:37:38.052Z,84.20
2018-12-04T05:40:06.259Z,83.88
2018-12-04T05:42:34.211Z,83.07
2018-12-04T05:45:01.785Z,83.20
2018-12-04T05:47:29.341Z,83.56
2018-12-04T05:49:56.917Z,84.14
2018-12-04T05:52:24.461Z,84.34
2018-12-04T05:54:52.066Z,84.09
2018-12-04T05:57:19.866Z,83.98
2018-12-04T05:59:47.466Z,83.67
2018-12-04T06:02:15.112Z,83.51
2018-12-04T06:04:42.916Z,82.08
2018-12-04T06:07:10.454Z,83.25
2018-12-04T06:09:38.064Z,83.24
2018-12-04T06:12:05.720Z,83.14
2018-12-04T06:14:33.536Z,82.93
2018-12-04T06:17:01.145Z,82.84
2018-12-04T06:19:28.723Z,82.03
2018-12-04T06:21:56.339Z,82.70
2018-12-04T06:24:23.906Z,82.64
2018-12-04T06:26:51.735Z,81.74
2018-12-04T06:29:19.602Z,81.87
2018-12-04T06:31:47.221Z,81.90
2018-12-04T06:34:14.800Z,81.64
2018-12-04T06:36:42.392Z,82.14
2018-12-04T06:39:10.033Z,80.88
2018-12-04T06:41:37.644Z,81.53
2018-12-04T06:44:05.239Z,82.23
2018-12-04T06:46:33.152Z,82.12
2018-12-04T06:49:00.741Z,82.00
2018-12-04T06:51:28.570Z,81.82
2018-12-04T06:53:56.217Z,82.45
2018-12-04T06:56:23.753Z,82.20
2018-12-04T06:58:51.336Z,81.47
2018-12-04T07:01:18.957Z,81.97
2018-12-04T07:03:46.497Z,81.64
2018-12-04T07:06:14.063Z,82.41
2018-12-04T07:08:41.902Z,81.85
2018-12-04T07:11:09.441Z,81.74
2018-12-04T07:13:37.114Z,81.20
2018-12-04T07:16:04.672Z,80.72
2018-12-04T07:18:32.450Z,81.75
2018-12-04T07:21:00.070Z,81.69
2018-12-04T07:23:27.669Z,80.34
2018-12-04T07:25:55.443Z,80.71
2018-12-04T07:28:23.303Z,81.30
2018-12-04T07:30:50.861Z,81.18
2018-12-04T07:33:18.451Z,80.88
2018-12-04T07:35:46.058Z,80.72
2018-12-04T07:38:13.602Z,80.38
2018-12-04T07:40:41.253Z,81.21
2018-12-04T07:43:09.444Z,81.58
2018-12-04T07:45:37.464Z,81.04
2018-12-04T07:48:05.113Z,80.97
2018-12-04T07:50:32.690Z,81.24
2018-12-04T07:53:00.281Z,80.38
2018-12-04T07:55:28.318Z,79.75
2018-12-04T07:57:55.870Z,79.74
2018-12-04T08:00:23.442Z,80.45
2018-12-04T08:02:51.312Z,79.80
2018-12-04T08:05:18.898Z,79.91
2018-12-04T08:07:46.471Z,80.46
2018-12-04T08:10:14.051Z,80.22
2018-12-04T08:12:41.975Z,80.24
2018-12-04T08:15:09.572Z,80.40
2018-12-04T08:17:37.242Z,81.21
2018-12-04T08:20:06.445Z,80.69
2018-12-04T08:22:34.041Z,79.71
2018-12-04T08:25:01.616Z,80.14
2018-12-04T08:27:29.333Z,80.66
2018-12-04T08:29:57.081Z,81.08
2018-12-04T08:32:24.686Z,80.24
2018-12-04T08:34:52.349Z,81.27
2018-12-04T08:37:19.911Z,81.34
2018-12-04T08:39:47.489Z,81.22
2018-12-04T08:42:15.139Z,81.38
2018-12-04T08:44:42.715Z,81.68
2018-12-04T08:47:10.274Z,81.58
2018-12-04T08:49:37.875Z,81.25
2018-12-04T08:52:05.538Z,80.65
2018-12-04T08:54:33.095Z,81.06
2018-12-04T08:57:00.625Z,80.14
2018-12-04T08:59:28.506Z,79.92
2018-12-04T09:01:56.067Z,79.79
2018-12-04T09:04:23.649Z,79.86
2018-12-04T09:06:51.335Z,79.23
2018-12-04T09:09:19.029Z,79.56
2018-12-04T09:11:46.668Z,79.75
2018-12-04T09:14:14.248Z,79.79
2018-12-04T09:16:42.144Z,79.75
2018-12-04T09:19:09.842Z,78.98
2018-12-04T09:21:37.512Z,79.54
2018-12-04T09:24:05.241Z,78.30
2018-12-04T09:26:32.983Z,78.52
2018-12-04T09:29:00.630Z,78.43
2018-12-04T09:31:28.285Z,78.21
2018-12-04T09:33:56.179Z,78.53
2018-12-04T09:36:23.803Z,77.79
2018-12-04T09:38:51.400Z,77.94
2018-12-04T09:41:19.001Z,78.69
2018-12-04T09:43:46.568Z,78.24
2018-12-04T09:46:14.166Z,77.51
2018-12-04T09:48:41.715Z,76.93
2018-12-04T09:51:09.309Z,77.42
2018-12-04T09:53:36.966Z,76.29
2018-12-04T09:56:04.537Z,75.40
2018-12-04T09:58:32.105Z,76.72
2018-12-04T10:00:59.677Z,75.91
2018-12-04T10:03:27.483Z,76.08
2018-12-04T10:05:55.057Z,75.27
2018-12-04T10:08:22.754Z,76.04
2018-12-04T10:10:50.409Z,76.00
2018-12-04T10:13:18.018Z,75.94
2018-12-04T10:15:45.545Z,75.39
2018-12-04T10:18:13.166Z,74.28
2018-12-04T10:20:40.756Z,74.00
2018-12-04T10:23:08.437Z,74.47
2018-12-04T10:25:38.028Z,73.94
2018-12-04T10:28:05.625Z,74.27
2018-12-04T10:30:33.201Z,73.61
2018-12-04T10:33:00.860Z,74.00
2018-12-04T10:35:28.478Z,71.99
2018-12-04T10:37:56.054Z,71.92
2018-12-04T10:40:23.913Z,71.35
2018-12-04T10:42:51.797Z,70.13
2018-12-04T10:45:19.360Z,70.60
2018-12-04T10:47:46.930Z,70.36
2018-12-04T10:50:14.498Z,71.61
2018-12-04T10:52:42.050Z,71.76
2018-12-04T10:55:09.685Z,70.12
2018-12-04T10:57:37.259Z,69.79
2018-12-04T11:00:10.097Z,69.40
2018-12-04T11:02:44.540Z,69.60
2018-12-04T11:05:12.150Z,70.10
2018-12-04T11:07:39.777Z,69.21
2018-12-04T11:10:07.331Z,69.01
2018-12-04T11:12:35.195Z,69.81
2018-12-04T11:15:02.757Z,68.16
2018-12-04T11:17:30.329Z,68.11
2018-12-04T11:19:57.907Z,68.48
2018-12-04T11:22:25.487Z,68.29
2018-12-04T11:24:53.123Z,68.00
2018-12-04T11:27:20.709Z,68.49
2018-12-04T11:29:48.299Z,68.71
2018-12-04T11:32:15.893Z,68.72
2018-12-04T11:34:43.477Z,67.78
2018-12-04T11:37:11.041Z,68.23
2018-12-04T11:39:38.987Z,67.76
2018-12-04T11:42:06.549Z,69.04
2018-12-04T11:44:34.099Z,67.29
2018-12-04T11:47:01.721Z,67.05
2018-12-04T11:49:29.336Z,66.81
2018-12-04T11:51:56.894Z,66.92
2018-12-04T11:54:24.762Z,67.51
2018-12-04T11:56:52.292Z,65.84
2018-12-04T11:59:19.857Z,66.84
2018-12-04T12:01:47.398Z,65.90
2018-12-04T12:04:15.026Z,64.62
2018-12-04T12:06:42.611Z,65.10
2018-12-04T12:09:10.154Z,65.99
2018-12-04T12:11:37.787Z,64.77
2018-12-04T12:14:05.951Z,63.95
2018-12-04T12:16:33.538Z,64.16
2018-12-04T12:19:01.293Z,63.17
2018-12-04T12:21:28.879Z,63.85
2018-12-04T12:23:56.419Z,63.47
2018-12-04T12:26:24.274Z,64.04
2018-12-04T12:28:51.831Z,63.11
2018-12-04T12:31:19.417Z,63.14
2018-12-04T12:33:47.374Z,64.00
2018-12-04T12:36:15.062Z,63.73
2018-12-04T12:38:42.623Z,64.09
2018-12-04T12:41:10.235Z,62.41
2018-12-04T12:43:37.836Z,64.00
2018-12-04T12:46:06.008Z,63.57
2018-12-04T12:48:33.579Z,62.82
2018-12-04T12:51:01.201Z,62.08
2018-12-04T12:53:28.793Z,62.58
2018-12-04T12:55:56.347Z,61.76
2018-12-04T12:58:23.994Z,60.75
2018-12-04T13:00:51.615Z,60.38
2018-12-04T13:03:19.178Z,61.92
2018-12-04T13:05:47.515Z,61.17
2018-12-04T13:08:15.339Z,61.17
2018-12-04T13:10:42.875Z,61.28
2018-12-04T13:13:10.489Z,60.85
2018-12-04T13:15:38.145Z,61.31
2018-12-04T13:18:05.768Z,61.46
2018-12-04T13:20:33.353Z,61.27
2018-12-04T13:23:00.952Z,66.44
2018-12-04T13:25:28.971Z,69.41
2018-12-04T13:27:56.740Z,70.50
2018-12-04T13:30:24.297Z,71.60
2018-12-04T13:32:51.874Z,72.50
2018-12-04T13:35:19.467Z,72.67
2018-12-04T13:37:47.185Z,72.53
2018-12-04T13:40:15.086Z,73.34
2018-12-04T13:42:42.979Z,72.30
2018-12-04T13:45:10.572Z,73.24
2018-12-04T13:47:38.156Z,72.89
2018-12-04T13:50:06.006Z,71.96
2018-12-04T13:52:33.553Z,70.37
2018-12-04T13:55:01.473Z,70.06
2018-12-04T13:57:29.437Z,68.97
2018-12-04T13:59:57.029Z,69.85
2018-12-04T14:02:25.400Z,69.29
2018-12-04T14:04:53.092Z,69.08
2018-12-04T14:07:20.677Z,68.27
2018-12-04T14:09:48.355Z,69.46
2018-12-04T14:12:16.080Z,69.82
2018-12-04T14:14:43.632Z,68.37
2018-12-04T14:17:11.206Z,68.06
2018-12-04T14:19:38.970Z,67.96
2018-12-04T14:22:06.752Z,69.30
2018-12-04T14:24:34.322Z,68.85
2018-12-04T14:27:01.925Z,68.21
2018-12-04T14:29:29.508Z,67.94
2018-12-04T14:31:57.253Z,67.07
2018-12-04T14:34:24.874Z,65.75
2018-12-04T14:36:52.523Z,65.17
2018-12-04T14:39:20.123Z,65.56
2018-12-04T14:41:47.696Z,64.50
2018-12-04T14:44:15.402Z,64.98
2018-12-04T14:46:43.032Z,66.19
2018-12-04T14:49:10.695Z,64.83
2018-12-04T14:51:38.314Z,65.78
2018-12-04T14:54:05.933Z,65.41
2018-12-04T14:56:33.490Z,65.00
2018-12-04T14:59:01.110Z,64.86
2018-12-04T15:01:28.828Z,64.26
2018-12-04T15:03:56.557Z,63.93
2018-12-04T15:06:24.189Z,65.48
2018-12-04T15:08:52.082Z,65.51
2018-12-04T15:11:20.406Z,65.36
2018-12-04T15:13:48.058Z,65.93
2018-12-04T15:16:15.642Z,64.72
2018-12-04T15:18:43.254Z,65.07
2018-12-04T15:21:11.335Z,64.72
2018-12-04T15:23:38.943Z,64.82
2018-12-04T15:26:06.703Z,65.61
2018-12-04T15:28:34.391Z,65.81
2018-12-04T15:31:03.464Z,64.81
2018-12-04T15:33:31.367Z,65.20
2018-12-04T15:35:58.932Z,65.03
2018-12-04T15:38:26.662Z,65.20
2018-12-04T15:40:54.367Z,65.08
2018-12-04T15:43:22.022Z,64.44
2018-12-04T15:45:49.653Z,64.41
2018-12-04T15:48:17.364Z,65.59
2018-12-04T15:50:45.007Z,65.10
2018-12-04T15:53:12.612Z,65.18
2018-12-04T15:55:40.552Z,65.23
2018-12-04T15:58:08.163Z,64.28
2018-12-04T16:00:35.983Z,64.89
2018-12-04T16:03:03.644Z,64.71
2018-12-04T16:05:31.268Z,65.25
2018-12-04T16:07:58.832Z,65.15
2018-12-04T16:10:26.527Z,65.42
2018-12-04T16:12:54.150Z,64.57
2018-12-04T16:15:21.717Z,63.95
2018-12-04T16:17:49.283Z,63.69
2018-12-04T16:20:16.858Z,64.25
2018-12-04T16:22:44.473Z,63.96
2018-12-04T16:25:12.133Z,63.93
2018-12-04T16:27:39.802Z,63.82
2018-12-04T16:30:07.573Z,63.87
2018-12-04T16:32:35.216Z,63.87
2018-12-04T16:35:02.764Z,63.57
2018-12-04T16:37:30.318Z,63.66
2018-12-04T16:39:57.906Z,62.82
2018-12-04T16:42:25.804Z,63.28
2018-12-04T16:44:53.463Z,63.17
2018-12-04T16:47:21.491Z,64.13
2018-12-04T16:49:49.219Z,63.87
2018-12-04T16:52:16.816Z,65.26
2018-12-04T16:54:44.349Z,65.43
2018-12-04T16:57:12.117Z,65.67
2018-12-04T16:59:40.013Z,66.51
2018-12-04T17:02:07.567Z,67.11
2018-12-04T17:04:35.233Z,67.70
2018-12-04T17:07:03.038Z,67.90
2018-12-04T17:09:30.627Z,67.48
2018-12-04T17:11:58.236Z,66.67
2018-12-04T17:14:25.803Z,67.32
2018-12-04T17:16:53.396Z,67.89
2018-12-04T17:19:21.365Z,67.89
2018-12-04T17:21:48.945Z,67.65
2018-12-04T17:24:16.524Z,68.03
2018-12-04T17:26:44.168Z,67.76
2018-12-04T17:29:11.811Z,68.02
2018-12-04T17:31:39.369Z,68.39
2018-12-04T17:34:06.968Z,68.56
2018-12-04T17:36:34.557Z,68.37
2018-12-04T17:39:02.112Z,68.67
2018-12-04T17:41:29.736Z,69.19
2018-12-04T17:43:57.279Z,68.65
2018-12-04T17:46:24.849Z,68.90
2018-12-04T17:48:52.460Z,69.92
2018-12-04T17:51:20.061Z,69.47
2018-12-04T17:53:47.780Z,70.00
2018-12-04T17:56:15.410Z,69.90
2018-12-04T17:58:43.152Z,70.48
2018-12-04T18:01:10.748Z,70.56
2018-12-04T18:03:38.380Z,70.75
2018-12-04T18:06:05.936Z,70.97
2018-12-04T18:08:33.871Z,71.34
2018-12-04T18:11:01.424Z,71.67
2018-12-04T18:13:29.005Z,72.23
2018-12-04T18:15:56.841Z,72.10
2018-12-04T18:18:24.495Z,72.41
2018-12-04T18:20:52.117Z,72.35
2018-12-04T18:23:19.732Z,72.29
2018-12-04T18:25:47.381Z,72.79
2018-12-04T18:28:14.997Z,73.42
2018-12-04T18:30:42.553Z,73.28
2018-12-04T18:33:10.153Z,72.68
2018-12-04T18:35:37.846Z,72.48
2018-12-04T18:38:05.438Z,73.03
2018-12-04T18:40:33.000Z,73.67
2018-12-04T18:43:00.557Z,73.19
2018-12-04T18:45:28.182Z,73.73
2018-12-04T18:47:56.157Z,73.49
2018-12-04T18:50:23.852Z,73.63
2018-12-04T18:52:51.461Z,73.66
2018-12-04T18:55:21.043Z,74.02
2018-12-04T18:57:48.702Z,74.13
2018-12-04T19:00:16.408Z,73.73
2018-12-04T19:02:44.047Z,74.46
2018-12-04T19:05:11.683Z,74.58
2018-12-04T19:07:39.344Z,74.48
2018-12-04T19:10:07.042Z,73.99
2018-12-04T19:12:34.981Z,74.58
2018-12-04T19:15:02.590Z,74.42
2018-12-04T19:17:30.281Z,75.17
2018-12-04T19:19:57.967Z,74.48
2018-12-04T19:22:25.950Z,75.02
2018-12-04T19:24:53.679Z,74.80
2018-12-04T19:27:21.339Z,75.40
2018-12-04T19:29:48.890Z,75.56
2018-12-04T19:32:16.532Z,75.16
2018-12-04T19:34:44.264Z,74.81
2018-12-04T19:37:11.890Z,75.69
2018-12-04T19:39:39.485Z,75.63
2018-12-04T19:42:07.145Z,75.32
2018-12-04T19:44:35.253Z,75.55
2018-12-04T19:47:02.972Z,75.45
2018-12-04T19:49:31.465Z,76.33
2018-12-04T19:51:59.087Z,76.53
2018-12-04T19:54:26.647Z,76.77
2018-12-04T19:56:54.435Z,77.19
2018-12-04T19:59:21.985Z,76.93
2018-12-04T20:01:49.545Z,76.76
2018-12-04T20:04:17.135Z,76.73
2018-12-04T20:06:44.758Z,77.37
2018-12-04T20:09:12.388Z,77.21
2018-12-04T20:11:40.039Z,76.62
2018-12-04T20:14:07.586Z,76.55
2018-12-04T20:16:35.168Z,76.76
2018-12-04T20:19:02.767Z,76.64
2018-12-04T20:21:30.526Z,76.67
2018-12-04T20:23:58.116Z,76.88
2018-12-04T20:26:26.371Z,77.22
2018-12-04T20:28:54.036Z,77.57
2018-12-04T20:31:21.580Z,77.82
2018-12-04T20:33:49.178Z,77.91
2018-12-04T20:36:16.784Z,77.85
2018-12-04T20:38:44.879Z,77.65
2018-12-04T20:41:12.527Z,77.76
2018-12-04T20:43:40.103Z,78.12
2018-12-04T20:46:07.987Z,77.96
2018-12-04T20:48:35.584Z,78.07
2018-12-04T20:51:03.137Z,78.28
2018-12-04T20:53:30.685Z,78.52
2018-12-04T20:55:58.253Z,78.86
2018-12-04T20:58:25.917Z,78.78
2018-12-04T21:00:53.556Z,78.16
2018-12-04T21:03:21.132Z,78.19
2018-12-04T21:05:48.772Z,78.41
2018-12-04T21:08:16.386Z,78.24
2018-12-04T21:10:44.005Z,78.97
2018-12-04T21:13:14.664Z,79.30
2018-12-04T21:15:41.260Z,78.88
2018-12-04T21:18:08.825Z,79.35
2018-12-04T21:20:36.502Z,78.64
2018-12-04T21:23:04.162Z,78.81
2018-12-04T21:25:31.724Z,78.94
2018-12-04T21:28:05.843Z,78.53
2018-12-04T21:30:39.339Z,78.45
2018-12-04T21:33:12.529Z,78.96
2018-12-04T21:35:46.596Z,79.10
2018-12-04T21:38:19.740Z,78.30
2018-12-04T21:41:07.987Z,78.43
2018-12-04T21:43:41.909Z,78.61
2018-12-04T21:46:11.511Z,79.12
2018-12-04T21:48:39.367Z,79.51
2018-12-04T21:51:06.982Z,79.27
2018-12-04T21:53:34.572Z,79.64
2018-12-04T21:56:02.264Z,79.72
2018-12-04T21:58:30.128Z,79.82
2018-12-04T22:00:57.911Z,79.31
2018-12-04T22:03:25.519Z,79.41
2018-12-04T22:05:53.427Z,79.73
2018-12-04T22:08:21.189Z,79.67
2018-12-04T22:10:48.803Z,80.32
2018-12-04T22:13:16.711Z,79.91
2018-12-04T22:15:44.599Z,80.34
2018-12-04T22:18:12.561Z,80.38
2018-12-04T22:20:40.279Z,80.87
2018-12-04T22:23:07.894Z,80.58
2018-12-04T22:25:35.460Z,81.13
2018-12-04T22:28:03.083Z,80.58
2018-12-04T22:30:30.731Z,80.51
2018-12-04T22:32:58.292Z,81.37
2018-12-04T22:35:25.930Z,81.06
2018-12-04T22:37:53.474Z,81.13
2018-12-04T22:40:21.124Z,81.16
2018-12-04T22:42:48.764Z,81.52
2018-12-04T22:45:22.175Z,81.10
2018-12-04T22:47:49.787Z,80.92
2018-12-04T22:50:17.356Z,81.17
2018-12-04T22:52:44.961Z,80.87
2018-12-04T22:55:12.517Z,80.93
2018-12-04T22:57:40.384Z,80.96
2018-12-04T23:00:13.545Z,81.25
2018-12-04T23:02:41.142Z,81.44
2018-12-04T23:05:08.748Z,81.58
2018-12-04T23:07:36.310Z,81.53
2018-12-04T23:10:06.363Z,81.53
2018-12-04T23:12:34.020Z,80.97
2018-12-04T23:15:01.734Z,80.99
2018-12-04T23:17:29.369Z,81.79
2018-12-04T23:19:57.012Z,81.39
2018-12-04T23:22:25.310Z,81.87
2018-12-04T23:24:52.878Z,81.92
2018-12-04T23:27:20.441Z,82.36
2018-12-04T23:29:48.017Z,82.66
2018-12-04T23:32:15.571Z,82.22
2018-12-04T23:34:43.176Z,82.72
2018-12-04T23:37:10.761Z,82.29
2018-12-04T23:39:38.444Z,82.51
2018-12-04T23:42:06.324Z,82.80
2018-12-04T23:44:33.929Z,82.86
2018-12-04T23:47:01.456Z,82.79
2018-12-04T23:49:29.050Z,82.41
2018-12-04T23:51:56.628Z,82.59
2018-12-04T23:54:24.169Z,82.75
2018-12-04T23:56:51.781Z,83.04
2018-12-04T23:59:19.633Z,82.31
